URKA 200800Z 30003MPS 250V350 9999 FEW033 23/14 Q1017 R03/010070 TEMPO SCT030 RMK QFE759/1012
QNH:(hPa/inHg/mmHg)1017 / 30.03 / 763
QFE:(hPa/inHg/mmHg)1010 / 29.84 / 758
Temperature23
Dew Point14
Visibility> 10000
Weather
Cloud CoverFEW (3300);
SCT (3000);
Transition Altitude4000 ft.
Transition LevelFL50
SQUAWK